الصفحة الرئيسية
METAR-TAF:

METAR-TAF

مطار :

مطار مالابو

مالابو, غينيا الاستوائية

دائرة عرض: 03-45-18N, خط طول: 08-42-31E, ارتفاع: 23 متر

مراقبة الطقس الحالي

تاريخ ووقت الإصدار 37 دقيقة قبل الساعة 09:00UTC
ريح 3 عقدة من الغرب/الجنوب الغربي, الاتجاه يتراوح بين الجنوب/الجنوب الغربي و الغرب/الشمال الغربي
درجة الحرارة 31°درجة مئوية
الرطوبة 63%
ضغط 1015 hPa
الرؤية 10 كم أو أكثر
غيوم قليلة على ارتفاع 1000 قدم

METAR: FGSL 140900Z 25003KT 200V290 9999 FEW010 31/23 Q1015 NOSIG

زمن: 10:37 (09:37 UTC)

توقعات

تاريخ ووقت الإصدار 4ساعات و 37 دقيقة قبل الساعة 05:00UTC
التوقعات صالحة من14 الساعة 06 UTC إلى 15 الساعة 12 UTC
ريح 6 عقدة من الجنوب الغربي
الرؤية 10 كم أو أكثر
غيوم متفرقة على ارتفاع 1000 قدم
غيوم قليلة على ارتفاع 2000 قدم, مزنة ركامية.
نظرية الاحتمالات 30% :
مؤقت
من 14 الساعة 11 UTC إلى 14 الساعة 15 UTC
غيوم مفككة على ارتفاع 1000 قدم
غيوم قليلة على ارتفاع 2000 قدم, مزنة ركامية.
مؤقت
من 14 الساعة 23 UTC إلى 15 الساعة 07 UTC
عاصفة رعدية

TAF: FGSL 140500Z 1406/1512 22006KT 9999 SCT010 FEW020CB PROB30 TEMPO 1411/1415 BKN010 FEW020CB TEMPO 1423/1507 TS

أرصاد الطقس والتوقعات من أكثر من 4000 مطار (تقارير الطقس للمطار METAR والتنبؤ بالطقس بالمطارTAF).

المحطات المتاحة هي النقط الصفراء والحمراء على الخريطة.

حرك المؤشر فوق النقطة لمعرفة اسم المحطة.

ثم انقر لمعرفة أرصاد وتوقعات الطقس.

لتغيير الخارطة: اضغط على الأزرار الخضراء مع رمز الصليب الأسود للتكبير. على الزر الأخضر مع شرطة للتصغير، أو على الأسهم الخضراء للخرائط المجاورة.


METAR-TAF: